EW3775 Weather Reports


Display with metric or nautical units.
time (UTC)temp
F
wind
direction
speed
MPH
gust
MPH
rain 1hr
in
rain 24hr
in
rain mn
in
humidity
%
barometer
mb
20181118154929 33 148 0.0 0.0 0.01 0.25 0.01 70 1025.7
20181118153417 32 193 0.0 0.0 0.00 0.24 0.00 71 1025.9
20181118151918 32 229 0.0 0.0 0.00 0.24 0.00 72 1026.0
20181118150422 31 230 0.0 0.0 0.00 0.24 0.00 73 1026.0
20181118144929 31 217 0.0 0.0 0.00 0.24 0.00 74 1026.1
20181118143433 31 217 0.0 0.0 0.00 0.24 0.00 74 1026.1
20181118141920 31 217 0.0 0.0 0.00 0.24 0.00 75 1026.2
20181118140423 30 248 0.0 0.0 0.00 0.24 0.00 75 1026.2
20181118134927 30 344 0.0 0.0 0.00 0.25 0.00 78 1026.2
20181118133415 29 344 0.0 0.0 0.00 0.25 0.00 85 1026.3
20181118131918 28 344 0.0 0.0 0.00 0.25 0.00 84 1026.3
20181118130425 27 344 0.0 0.0 0.00 0.25 0.00 85 1026.4
20181118124927 27 344 0.0 0.0 0.00 0.26 0.00 87 1026.3
20181118123431 26 344 0.0 0.0 0.00 0.26 0.00 86 1026.4
20181118121918 26 344 0.0 0.0 0.00 0.26 0.00 86 1026.2
20181118120423 25 344 0.0 0.0 0.00 0.26 0.00 85 1026.2
20181118114929 25 344 0.0 0.0 0.00 0.27 0.00 84 1026.0
20181118113415 26 344 0.0 0.0 0.00 0.27 0.00 84 1025.8
20181118111918 26 344 0.0 0.0 0.00 0.27 0.00 82 1025.7
20181118110425 27 344 0.0 0.0 0.00 0.27 0.00 82 1025.7
20181118104927 28 344 0.0 0.0 0.00 0.28 0.00 82 1025.7
20181118103434 28 344 0.0 0.0 0.00 0.28 0.00 81 1025.7
20181118101916 28 344 0.0 0.0 0.00 0.28 0.00 82 1025.6
20181118100419 29 344 0.0 0.0 0.00 0.28 0.00 80 1025.6
20181118094927 29 344 0.0 0.0 0.00 0.30 0.00 80 1025.7
20181118093431 29 344 0.0 0.0 0.00 0.30 0.00 78 1025.6
20181118091918 29 344 0.0 0.0 0.00 0.30 0.00 78 1025.3
20181118090420 29 344 0.0 0.0 0.00 0.30 0.00 77 1025.0
20181118084924 29 316 0.0 0.0 0.00 0.31 0.00 76 1025.0
20181118083431 29 13 0.0 1.0 0.00 0.31 0.00 74 1025.2
20181118081933 30 58 1.0 4.0 0.00 0.31 0.00 75 1025.2
20181118080420 30 18 0.0 0.0 0.00 0.31 0.00 76 1025.4
20181118074924 30 301 0.0 0.0 0.00 0.32 0.00 78 1025.6
20181118073428 30 336 0.0 0.0 0.00 0.32 0.00 79 1025.5
20181118071915 30 318 1.0 4.0 0.00 0.32 0.00 78 1025.5
20181118070419 31 47 1.0 6.0 0.00 0.32 0.00 79 1025.4
20181118064925 31 4 3.0 5.0 0.00 0.33 0.00 79 1025.1
20181118063426 31 309 2.0 8.0 0.00 0.33 0.00 78 1025.1
20181118061929 31 292 2.0 4.0 0.00 0.33 0.00 78 1024.9
20181118060417 32 237 2.0 4.0 0.00 0.33 0.00 78 1024.7
20181118054919 32 209 0.0 1.0 0.00 0.34 0.00 78 1024.5
20181118053425 32 247 0.0 0.0 0.00 0.34 0.00 78 1024.5
20181118051926 32 323 0.0 4.0 0.00 0.34 0.00 78 1024.5
20181118050428 32 222 3.0 5.0 0.00 0.34 0.00 79 1024.5
20181118044933 32 316 1.0 4.0 0.00 0.34 0.34 80 1024.4
20181118043415 32 293 1.0 5.0 0.00 0.34 0.34 79 1024.3
20181118041921 32 240 1.0 7.0 0.00 0.34 0.34 80 1024.1
20181118040425 32 252 2.0 5.0 0.00 0.34 0.34 82 1024.1
20181118034927 32 323 0.0 5.0 0.00 0.35 0.34 83 1024.1
20181118033432 32 335 3.0 6.0 0.00 0.35 0.34 85 1024.0
20181118031934 33 310 0.0 3.0 0.00 0.35 0.34 85 1024.0
20181118030420 33 280 2.0 5.0 0.00 0.35 0.34 83 1023.9
20181118024922 33 304 4.0 7.0 0.00 0.36 0.34 80 1023.6
20181118023423 34 221 3.0 6.0 0.00 0.36 0.34 78 1023.4
20181118021931 34 278 4.0 8.0 0.00 0.36 0.34 76 1023.4
20181118020415 34 272 4.0 14.0 0.00 0.36 0.34 75 1023.2
20181118014921 34 300 5.0 8.0 0.00 0.37 0.34 76 1023.2
20181118013423 34 240 3.0 9.0 0.00 0.37 0.34 75 1022.9
20181118011925 34 253 5.0 10.0 0.00 0.37 0.34 75 1022.9
20181118010432 34 254 2.0 8.0 0.00 0.37 0.34 76 1022.8
20181118004934 34 291 2.0 10.0 0.01 0.38 0.34 76 1022.5
20181118003421 35 234 3.0 8.0 0.01 0.38 0.34 77 1022.4
20181118001923 34 206 3.0 11.0 0.01 0.38 0.34 78 1022.3
20181118000425 34 285 5.0 10.0 0.01 0.38 0.34 79 1022.5
20181117234930 35 251 3.0 11.0 0.00 0.38 0.33 80 1022.5
20181117233433 35 277 2.0 7.0 0.00 0.38 0.33 82 1022.0
20181117231919 35 209 2.0 10.0 0.00 0.38 0.33 81 1021.9
20181117230422 35 246 4.0 8.0 0.00 0.38 0.33 81 1021.7
20181117224922 35 252 5.0 10.0 0.00 0.39 0.33 80 1021.5
20181117223429 35 216 3.0 8.0 0.00 0.39 0.33 81 1021.2
20181117221930 36 245 2.0 8.0 0.01 0.39 0.33 82 1021.3
20181117220416 36 298 2.0 8.0 0.01 0.39 0.33 83 1021.1
20181117214918 36 269 3.0 6.0 0.01 0.39 0.33 82 1020.8
20181117213422 36 348 1.0 6.0 0.02 0.39 0.33 82 1020.6
20181117211925 36 232 2.0 8.0 0.01 0.38 0.32 81 1020.5
20181117210430 37 300 0.0 9.0 0.13 0.38 0.32 80 1020.2
20181117204933 37 308 1.0 8.0 0.19 0.38 0.32 80 1020.1
20181117203415 37 220 0.0 0.0 0.18 0.37 0.31 79 1019.8
20181117201917 37 212 2.0 4.0 0.18 0.37 0.31 78 1019.5
20181117200424 38 359 2.0 5.0 0.05 0.24 0.18 78 1019.4
20181117194923 38 249 3.0 7.0 0.00 0.20 0.13 77 1019.4
20181117193431 38 199 1.0 10.0 0.00 0.20 0.13 77 1019.1
20181117191931 38 233 4.0 7.0 0.00 0.20 0.13 76 1019.0
20181117190435 38 234 3.0 6.0 0.00 0.20 0.13 77 1018.8
20181117184918 38 266 2.0 9.0 0.00 0.20 0.13 77 1018.7
20181117183420 38 243 5.0 10.0 0.00 0.20 0.13 79 1018.7
20181117181924 38 291 2.0 5.0 0.00 0.20 0.13 82 1018.7
20181117180427 38 328 3.0 7.0 0.00 0.20 0.13 82 1018.7
20181117174927 38 255 2.0 9.0 0.00 0.20 0.13 81 1018.6
20181117173432 38 210 5.0 9.0 0.01 0.20 0.13 81 1018.5
20181117171932 38 195 4.0 7.0 0.01 0.20 0.13 82 1018.5
20181117170418 38 208 4.0 7.0 0.01 0.20 0.13 81 1018.5
20181117164919 38 241 4.0 13.0 0.01 0.20 0.13 81 1018.5
20181117163420 38 212 5.0 9.0 0.01 0.19 0.12 81 1018.7
20181117161924 38 254 6.0 10.0 0.01 0.19 0.12 81 1018.8
20181117160426 38 218 6.0 10.0 0.01 0.19 0.12 81 1018.9